createdAt,value
2017-01-18T00:00:17.320Z,921.28
2017-01-18T00:00:45.482Z,921.29
2017-01-18T00:01:13.679Z,921.3
2017-01-18T00:01:41.971Z,921.27
2017-01-18T00:02:10.314Z,921.29
2017-01-18T00:02:38.625Z,921.3
2017-01-18T00:03:06.725Z,921.31
2017-01-18T00:03:34.833Z,921.3
2017-01-18T00:04:03.001Z,921.33
2017-01-18T00:05:14.455Z,921.33
2017-01-18T00:05:42.850Z,921.33
2017-01-18T00:06:10.932Z,921.31
2017-01-18T00:06:39.279Z,921.35
2017-01-18T00:07:07.565Z,921.34
2017-01-18T00:07:35.782Z,921.36
2017-01-18T00:08:04.032Z,921.34
2017-01-18T00:08:32.249Z,921.36
2017-01-18T00:09:00.630Z,921.39
2017-01-18T00:09:28.824Z,921.35
2017-01-18T00:09:57.069Z,921.37
2017-01-18T00:11:08.512Z,921.36
2017-01-18T00:11:36.864Z,921.35
2017-01-18T00:12:05.024Z,921.4
2017-01-18T00:12:33.242Z,921.42
2017-01-18T00:13:01.457Z,921.41
2017-01-18T00:13:29.626Z,921.42
2017-01-18T00:13:57.925Z,921.43
2017-01-18T00:14:26.227Z,921.42
2017-01-18T00:14:54.490Z,921.42
2017-01-18T00:15:22.682Z,921.46
2017-01-18T00:15:51.032Z,921.45
2017-01-18T00:17:02.345Z,921.41
2017-01-18T00:17:30.610Z,921.44
2017-01-18T00:17:58.863Z,921.44
2017-01-18T00:18:27.209Z,921.45
2017-01-18T00:18:55.505Z,921.49
2017-01-18T00:19:23.882Z,921.45
2017-01-18T00:19:52.118Z,921.45
2017-01-18T00:20:20.424Z,921.49
2017-01-18T00:20:48.799Z,921.48
2017-01-18T00:21:16.998Z,921.49
2017-01-18T00:21:45.334Z,921.46
2017-01-18T00:22:56.791Z,921.51
2017-01-18T00:23:25.147Z,921.5
2017-01-18T00:23:53.463Z,921.53
2017-01-18T00:24:21.690Z,921.53
2017-01-18T00:24:49.778Z,921.49
2017-01-18T00:25:18.136Z,921.51
2017-01-18T00:25:46.296Z,921.53
2017-01-18T00:26:14.699Z,921.56
2017-01-18T00:26:42.799Z,921.56
2017-01-18T00:27:11.089Z,921.57
2017-01-18T00:27:39.426Z,921.56
2017-01-18T00:28:50.766Z,921.54
2017-01-18T00:29:19.090Z,921.57
2017-01-18T00:29:47.419Z,921.55
2017-01-18T00:30:15.628Z,921.55
2017-01-18T00:30:43.867Z,921.55
2017-01-18T00:31:12.130Z,921.54
2017-01-18T00:31:40.436Z,921.54
2017-01-18T00:32:08.730Z,921.55
2017-01-18T00:32:36.782Z,921.53
2017-01-18T00:33:05.139Z,921.53
2017-01-18T00:33:33.435Z,921.59
2017-01-18T00:34:44.732Z,921.61
2017-01-18T00:35:13.057Z,921.59
2017-01-18T00:35:41.264Z,921.59
2017-01-18T00:36:09.479Z,921.62
2017-01-18T00:36:37.538Z,921.63
2017-01-18T00:37:05.797Z,921.59
2017-01-18T00:37:34.130Z,921.62
2017-01-18T00:38:02.311Z,921.68
2017-01-18T00:38:30.465Z,921.66
2017-01-18T00:38:58.627Z,921.67
2017-01-18T00:39:26.913Z,921.67
2017-01-18T00:40:38.294Z,921.66
2017-01-18T00:41:06.414Z,921.67
2017-01-18T00:41:34.634Z,921.67
2017-01-18T00:42:02.836Z,921.68
2017-01-18T00:42:31.200Z,921.69
2017-01-18T00:42:59.372Z,921.72
2017-01-18T00:43:27.676Z,921.68
2017-01-18T00:43:55.941Z,921.7
2017-01-18T00:44:24.192Z,921.68
2017-01-18T00:44:52.575Z,921.71
2017-01-18T00:45:20.791Z,921.73
2017-01-18T00:46:32.085Z,921.7
2017-01-18T00:47:00.301Z,921.69
2017-01-18T00:47:28.547Z,921.71
2017-01-18T00:47:56.890Z,921.69
2017-01-18T00:48:25.171Z,921.69
2017-01-18T00:48:53.435Z,921.66
2017-01-18T00:49:21.736Z,921.65
2017-01-18T00:49:49.994Z,921.7
2017-01-18T00:50:18.077Z,921.67
2017-01-18T00:50:46.331Z,921.67
2017-01-18T00:51:14.540Z,921.67
2017-01-18T00:52:25.861Z,921.68
2017-01-18T00:52:54.224Z,921.66
2017-01-18T00:53:22.594Z,921.65
2017-01-18T00:53:50.813Z,921.67
2017-01-18T00:54:19.145Z,921.66
2017-01-18T00:54:47.313Z,921.65
2017-01-18T00:55:15.527Z,921.65
2017-01-18T00:55:43.879Z,921.67
2017-01-18T00:56:12.131Z,921.67
2017-01-18T00:56:40.293Z,921.68
2017-01-18T00:57:08.391Z,921.67
2017-01-18T00:58:19.495Z,921.64
2017-01-18T00:58:47.805Z,921.65
2017-01-18T00:59:15.928Z,921.66
2017-01-18T00:59:44.152Z,921.64
2017-01-18T01:00:12.400Z,921.61
2017-01-18T01:00:40.663Z,921.62
2017-01-18T01:01:08.872Z,921.64
2017-01-18T01:01:37.139Z,921.66
2017-01-18T01:02:05.478Z,921.64
2017-01-18T01:02:33.728Z,921.65
2017-01-18T01:03:02.017Z,921.65
2017-01-18T01:04:13.320Z,921.65
2017-01-18T01:04:41.344Z,921.7
2017-01-18T01:05:09.646Z,921.73
2017-01-18T01:05:37.707Z,921.75
2017-01-18T01:06:05.859Z,921.75
2017-01-18T01:06:34.241Z,921.81
2017-01-18T01:07:02.449Z,921.78
2017-01-18T01:07:30.710Z,921.8
2017-01-18T01:07:58.954Z,921.8
2017-01-18T01:08:27.262Z,921.83
2017-01-18T01:08:55.497Z,921.83
2017-01-18T01:10:06.941Z,921.84
2017-01-18T01:10:35.118Z,921.86
2017-01-18T01:11:03.179Z,921.88
2017-01-18T01:11:31.246Z,921.9
2017-01-18T01:11:59.535Z,921.91
2017-01-18T01:12:27.743Z,921.91
2017-01-18T01:12:55.940Z,921.94
2017-01-18T01:13:24.063Z,921.93
2017-01-18T01:13:52.165Z,921.95
2017-01-18T01:14:20.378Z,921.96
2017-01-18T01:14:48.621Z,922.01
2017-01-18T01:15:59.971Z,922.02
2017-01-18T01:16:28.329Z,922.02
2017-01-18T01:16:56.577Z,922.02
2017-01-18T01:17:24.734Z,922
2017-01-18T01:17:53.018Z,921.97
2017-01-18T01:18:21.231Z,921.94
2017-01-18T01:18:49.489Z,921.97
2017-01-18T01:19:17.795Z,922.04
2017-01-18T01:19:46.172Z,921.93
2017-01-18T01:20:14.472Z,921.95
2017-01-18T01:20:42.807Z,921.98
2017-01-18T01:21:54.157Z,922
2017-01-18T01:22:22.515Z,922
2017-01-18T01:22:50.672Z,921.99
2017-01-18T01:23:18.923Z,921.95
2017-01-18T01:23:47.209Z,922.02
2017-01-18T01:24:15.419Z,921.98
2017-01-18T01:24:43.774Z,922.01
2017-01-18T01:25:11.988Z,921.97
2017-01-18T01:25:40.090Z,921.96
2017-01-18T01:26:08.398Z,921.96
2017-01-18T01:26:36.738Z,922
2017-01-18T01:27:48.182Z,921.98
2017-01-18T01:28:16.448Z,921.97
2017-01-18T01:28:44.510Z,921.98
2017-01-18T01:29:12.858Z,921.98
2017-01-18T01:29:41.142Z,921.98
2017-01-18T01:30:09.542Z,921.97
2017-01-18T01:30:37.799Z,922.01
2017-01-18T01:31:06.201Z,921.98
2017-01-18T01:31:34.395Z,922.02
2017-01-18T01:32:02.645Z,922.03
2017-01-18T01:32:30.931Z,922.08
2017-01-18T01:33:42.157Z,922.09
2017-01-18T01:34:10.426Z,922.14
2017-01-18T01:34:38.772Z,922.17
2017-01-18T01:35:06.831Z,922.19
2017-01-18T01:35:35.024Z,922.22
2017-01-18T01:36:03.420Z,922.22
2017-01-18T01:36:31.774Z,922.19
2017-01-18T01:36:59.975Z,922.23
2017-01-18T01:37:28.349Z,922.2
2017-01-18T01:37:56.649Z,922.18
2017-01-18T01:38:24.796Z,922.19
2017-01-18T01:39:36.049Z,922.21
2017-01-18T01:40:04.412Z,922.16
2017-01-18T01:40:32.753Z,922.23
2017-01-18T01:41:01.008Z,922.21
2017-01-18T01:41:29.110Z,922.18
2017-01-18T01:41:57.420Z,922.17
2017-01-18T01:42:25.772Z,922.2
2017-01-18T01:42:53.989Z,922.17
2017-01-18T01:43:22.277Z,922.16
2017-01-18T01:43:50.536Z,922.15
2017-01-18T01:44:18.866Z,922.1
2017-01-18T01:45:30.210Z,922.1
2017-01-18T01:45:58.477Z,922.03
2017-01-18T01:46:26.637Z,921.98
2017-01-18T01:46:54.894Z,921.98
2017-01-18T01:47:23.183Z,921.96
2017-01-18T01:47:51.399Z,921.94
2017-01-18T01:48:19.654Z,921.93
2017-01-18T01:48:47.871Z,921.91
2017-01-18T01:49:16.159Z,921.91
2017-01-18T01:49:44.367Z,921.87
2017-01-18T01:50:12.605Z,921.89
2017-01-18T01:51:23.955Z,921.85
2017-01-18T01:51:52.311Z,921.86
2017-01-18T01:52:20.651Z,921.86
2017-01-18T01:52:48.904Z,921.84
2017-01-18T01:53:17.287Z,921.83
2017-01-18T01:53:45.416Z,921.8
2017-01-18T01:54:13.761Z,921.83
2017-01-18T01:54:42.069Z,921.86
2017-01-18T01:55:10.384Z,921.83
2017-01-18T01:55:38.676Z,921.84
2017-01-18T01:56:06.818Z,921.84
2017-01-18T01:57:18.071Z,921.86
2017-01-18T01:57:46.433Z,921.9
2017-01-18T01:58:14.681Z,921.96
2017-01-18T01:58:43.025Z,921.91
2017-01-18T01:59:11.222Z,921.92
2017-01-18T01:59:39.435Z,921.94
2017-01-18T02:00:07.785Z,921.95
2017-01-18T02:00:35.905Z,922
2017-01-18T02:01:04.102Z,921.97
2017-01-18T02:01:32.404Z,922
2017-01-18T02:02:00.642Z,921.98
2017-01-18T02:03:11.989Z,921.98
2017-01-18T02:03:40.253Z,922.04
2017-01-18T02:04:08.581Z,922.05
2017-01-18T02:04:36.788Z,922.03
2017-01-18T02:05:04.940Z,922
2017-01-18T02:05:33.155Z,922.06
2017-01-18T02:06:01.505Z,921.99
2017-01-18T02:06:29.903Z,921.99
2017-01-18T02:06:58.433Z,921.98
2017-01-18T02:07:26.817Z,922.03
2017-01-18T02:07:55.144Z,921.99
2017-01-18T02:09:06.492Z,922
2017-01-18T02:09:34.664Z,921.96
2017-01-18T02:10:03.011Z,921.96
2017-01-18T02:10:31.259Z,921.96
2017-01-18T02:10:59.541Z,922
2017-01-18T02:11:27.938Z,921.98
2017-01-18T02:11:56.107Z,921.96
2017-01-18T02:12:24.226Z,921.96
2017-01-18T02:12:52.336Z,921.99
2017-01-18T02:13:20.633Z,921.97
2017-01-18T02:13:48.971Z,921.93
2017-01-18T02:15:00.320Z,921.95
2017-01-18T02:15:28.591Z,921.92
2017-01-18T02:15:56.842Z,921.91
2017-01-18T02:16:25.096Z,921.91
2017-01-18T02:16:53.479Z,921.88
2017-01-18T02:17:21.783Z,921.92
2017-01-18T02:17:50.135Z,921.91
2017-01-18T02:18:18.533Z,921.92
2017-01-18T02:18:46.821Z,921.9
2017-01-18T02:19:15.213Z,921.91
2017-01-18T02:19:43.545Z,921.89
2017-01-18T02:20:54.893Z,921.91
2017-01-18T02:21:23.161Z,921.88
2017-01-18T02:21:51.502Z,921.88
2017-01-18T02:22:19.755Z,921.89
2017-01-18T02:22:48.138Z,921.88
2017-01-18T02:23:16.445Z,921.86
2017-01-18T02:23:44.611Z,921.86
2017-01-18T02:24:12.920Z,921.85
2017-01-18T02:24:41.116Z,921.83
2017-01-18T02:25:09.414Z,921.86
2017-01-18T02:25:37.558Z,921.81
2017-01-18T02:26:48.723Z,921.81
2017-01-18T02:27:17.084Z,921.78
2017-01-18T02:27:45.432Z,921.78
2017-01-18T02:28:13.774Z,921.77
2017-01-18T02:28:42.159Z,921.77
2017-01-18T02:29:10.370Z,921.77
2017-01-18T02:29:38.628Z,921.78
2017-01-18T02:30:06.845Z,921.78
2017-01-18T02:30:35.034Z,921.79
2017-01-18T02:31:03.334Z,921.78
2017-01-18T02:31:31.575Z,921.77
2017-01-18T02:32:42.837Z,921.75
2017-01-18T02:33:11.010Z,921.78
2017-01-18T02:33:39.360Z,921.75
2017-01-18T02:34:07.707Z,921.75
2017-01-18T02:34:35.996Z,921.77
2017-01-18T02:35:04.300Z,921.74
2017-01-18T02:35:32.650Z,921.72
2017-01-18T02:36:01.046Z,921.71
2017-01-18T02:36:29.046Z,921.72
2017-01-18T02:36:57.252Z,921.7
2017-01-18T02:37:25.495Z,921.7
2017-01-18T02:38:36.753Z,921.73
2017-01-18T02:39:05.019Z,921.74
2017-01-18T02:39:33.362Z,921.76
2017-01-18T02:40:01.608Z,921.75
2017-01-18T02:40:29.993Z,921.74
2017-01-18T02:40:58.211Z,921.76
2017-01-18T02:41:26.558Z,921.76
2017-01-18T02:41:54.959Z,921.8
2017-01-18T02:42:23.237Z,921.8
2017-01-18T02:42:51.440Z,921.8
2017-01-18T02:43:19.774Z,921.79
2017-01-18T02:44:31.113Z,921.77
2017-01-18T02:44:59.377Z,921.8
2017-01-18T02:45:27.623Z,921.76
2017-01-18T02:45:55.782Z,921.77
2017-01-18T02:46:24.160Z,921.77
2017-01-18T02:46:52.559Z,921.79
2017-01-18T02:47:20.916Z,921.79
2017-01-18T02:47:49.130Z,921.82
2017-01-18T02:48:17.416Z,921.83
2017-01-18T02:48:45.716Z,921.8
2017-01-18T02:49:13.857Z,921.81
2017-01-18T02:50:25.299Z,921.84
2017-01-18T02:50:53.655Z,921.86
2017-01-18T02:51:21.908Z,921.86
2017-01-18T02:51:50.164Z,921.89
2017-01-18T02:52:18.548Z,921.86
2017-01-18T02:52:46.948Z,921.87
2017-01-18T02:53:15.211Z,921.85
2017-01-18T02:53:43.521Z,921.82
2017-01-18T02:54:11.712Z,921.81
2017-01-18T02:54:39.913Z,921.79
2017-01-18T02:55:08.064Z,921.8
2017-01-18T02:56:19.407Z,921.76
2017-01-18T02:56:47.924Z,921.71
2017-01-18T02:57:16.180Z,921.7
2017-01-18T02:57:44.431Z,921.69
2017-01-18T02:58:12.623Z,921.71
2017-01-18T02:58:40.834Z,921.64
2017-01-18T02:59:09.096Z,921.67
2017-01-18T02:59:37.410Z,921.66
2017-01-18T03:00:05.792Z,921.64
2017-01-18T03:00:34.176Z,921.64
2017-01-18T03:01:02.417Z,921.63
2017-01-18T03:02:13.675Z,921.62
2017-01-18T03:02:41.944Z,921.64
2017-01-18T03:03:10.195Z,921.62
2017-01-18T03:03:38.259Z,921.62
2017-01-18T03:04:06.628Z,921.61
2017-01-18T03:04:34.935Z,921.63
2017-01-18T03:05:03.297Z,921.64
2017-01-18T03:05:31.502Z,921.61
2017-01-18T03:05:59.799Z,921.61
2017-01-18T03:06:28.008Z,921.64
2017-01-18T03:06:56.241Z,921.64
2017-01-18T03:08:07.601Z,921.64
2017-01-18T03:08:35.959Z,921.63
2017-01-18T03:09:04.287Z,921.61
2017-01-18T03:09:32.441Z,921.66
2017-01-18T03:10:00.729Z,921.66
2017-01-18T03:10:29.037Z,921.66
2017-01-18T03:10:57.302Z,921.65
2017-01-18T03:11:25.511Z,921.66
2017-01-18T03:11:53.722Z,921.64
2017-01-18T03:12:21.928Z,921.65
2017-01-18T03:12:50.164Z,921.69
2017-01-18T03:14:01.524Z,921.68
2017-01-18T03:14:29.881Z,921.64
2017-01-18T03:14:58.123Z,921.58
2017-01-18T03:15:26.274Z,921.56
2017-01-18T03:15:54.648Z,921.59
2017-01-18T03:16:23.049Z,921.55
2017-01-18T03:16:51.314Z,921.46
2017-01-18T03:17:19.521Z,921.5
2017-01-18T03:17:47.821Z,921.48
2017-01-18T03:18:15.937Z,921.51
2017-01-18T03:18:44.161Z,921.5
2017-01-18T03:19:55.518Z,921.48
2017-01-18T03:20:23.688Z,921.41
2017-01-18T03:20:52.021Z,921.42
2017-01-18T03:21:20.272Z,921.43
2017-01-18T03:21:48.558Z,921.43
2017-01-18T03:22:16.968Z,921.42
2017-01-18T03:22:45.326Z,921.41
2017-01-18T03:23:13.528Z,921.36
2017-01-18T03:23:41.831Z,921.34
2017-01-18T03:24:10.220Z,921.35
2017-01-18T03:24:38.550Z,921.36
2017-01-18T03:25:50.003Z,921.35
2017-01-18T03:26:18.362Z,921.38
2017-01-18T03:26:46.700Z,921.34
2017-01-18T03:27:15.040Z,921.37
2017-01-18T03:27:43.240Z,921.36
2017-01-18T03:28:11.552Z,921.38
2017-01-18T03:28:39.911Z,921.39
2017-01-18T03:29:08.024Z,921.39
2017-01-18T03:29:36.324Z,921.36
2017-01-18T03:30:04.711Z,921.36
2017-01-18T03:30:33.033Z,921.34
2017-01-18T03:31:44.387Z,921.3
2017-01-18T03:32:12.558Z,921.25
2017-01-18T03:32:40.799Z,921.26
2017-01-18T03:33:09.043Z,921.27
2017-01-18T03:33:37.239Z,921.25
2017-01-18T03:34:05.549Z,921.28
2017-01-18T03:34:40.325Z,921.28
2017-01-18T03:35:08.612Z,921.29
2017-01-18T03:35:36.726Z,921.28
2017-01-18T03:36:05.109Z,921.24
2017-01-18T03:36:33.583Z,921.27
2017-01-18T03:37:44.935Z,921.31
2017-01-18T03:38:13.199Z,921.26
2017-01-18T03:38:41.441Z,921.24
2017-01-18T03:39:09.679Z,921.21
2017-01-18T03:39:37.963Z,921.23
2017-01-18T03:40:06.271Z,921.23
2017-01-18T03:40:34.529Z,921.27
2017-01-18T03:41:02.921Z,921.19
2017-01-18T03:41:31.310Z,921.23
2017-01-18T03:41:59.608Z,921.22
2017-01-18T03:42:27.839Z,921.23
2017-01-18T03:43:39.109Z,921.25
2017-01-18T03:44:07.373Z,921.22
2017-01-18T03:44:35.612Z,921.23
2017-01-18T03:45:03.759Z,921.21
2017-01-18T03:45:32.050Z,921.15
2017-01-18T03:46:00.266Z,921.17
2017-01-18T03:46:28.618Z,921.16
2017-01-18T03:46:56.946Z,921.16
2017-01-18T03:47:25.339Z,921.14
2017-01-18T03:47:53.635Z,921.15
2017-01-18T03:48:21.871Z,921.12
2017-01-18T03:49:33.232Z,921.11
2017-01-18T03:50:01.496Z,921.08
2017-01-18T03:50:29.733Z,921.04
2017-01-18T03:50:58.078Z,921.04
2017-01-18T03:51:26.355Z,921.1
2017-01-18T03:51:54.763Z,921.03
2017-01-18T03:52:23.024Z,921.02
2017-01-18T03:52:51.228Z,921.05
2017-01-18T03:53:19.439Z,921.03
2017-01-18T03:53:47.645Z,921.02
2017-01-18T03:54:15.874Z,920.98
2017-01-18T03:55:27.326Z,920.99
2017-01-18T03:55:55.690Z,921
2017-01-18T03:56:23.934Z,920.98
2017-01-18T03:56:52.085Z,920.99
2017-01-18T03:57:20.379Z,920.98
2017-01-18T03:57:48.597Z,920.96
2017-01-18T03:58:16.860Z,920.96
2017-01-18T03:58:45.071Z,920.92
2017-01-18T03:59:13.275Z,920.88
2017-01-18T03:59:41.478Z,920.87
2017-01-18T04:00:09.803Z,920.9
2017-01-18T04:01:21.248Z,920.87
2017-01-18T04:01:49.423Z,920.87
2017-01-18T04:02:17.584Z,920.88
2017-01-18T04:02:45.835Z,920.88
2017-01-18T04:03:14.116Z,920.89
2017-01-18T04:03:42.512Z,920.9
2017-01-18T04:04:10.775Z,920.91
2017-01-18T04:04:39.083Z,920.93
2017-01-18T04:05:07.376Z,920.87
2017-01-18T04:05:35.761Z,920.88
2017-01-18T04:06:03.999Z,920.86
2017-01-18T04:07:15.342Z,920.87
2017-01-18T04:07:43.609Z,920.85
2017-01-18T04:08:11.760Z,920.85
2017-01-18T04:08:40.011Z,920.85
2017-01-18T04:09:08.207Z,920.8
2017-01-18T04:09:36.604Z,920.83
2017-01-18T04:10:04.771Z,920.82
2017-01-18T04:10:33.079Z,920.78
2017-01-18T04:11:01.273Z,920.78
2017-01-18T04:11:29.563Z,920.77
2017-01-18T04:11:57.801Z,920.82
2017-01-18T04:13:09.151Z,920.79
2017-01-18T04:13:37.323Z,920.77
2017-01-18T04:14:05.483Z,920.8
2017-01-18T04:14:33.733Z,920.76
2017-01-18T04:15:02.109Z,920.77
2017-01-18T04:15:30.412Z,920.75
2017-01-18T04:15:58.764Z,920.78
2017-01-18T04:16:26.982Z,920.76
2017-01-18T04:16:55.359Z,920.78
2017-01-18T04:17:23.565Z,920.8
2017-01-18T04:17:51.808Z,920.74
2017-01-18T04:19:02.972Z,920.75
2017-01-18T04:19:31.144Z,920.73
2017-01-18T04:19:59.301Z,920.76
2017-01-18T04:20:27.643Z,920.74
2017-01-18T04:20:56.019Z,920.74
2017-01-18T04:21:24.227Z,920.69
2017-01-18T04:21:52.484Z,920.75
2017-01-18T04:22:20.887Z,920.73
2017-01-18T04:22:48.987Z,920.72
2017-01-18T04:23:17.371Z,920.72
2017-01-18T04:23:45.706Z,920.72
2017-01-18T04:24:57.057Z,920.71
2017-01-18T04:25:25.418Z,920.7
2017-01-18T04:25:53.575Z,920.74
2017-01-18T04:26:21.823Z,920.73
2017-01-18T04:26:50.201Z,920.71
2017-01-18T04:27:18.503Z,920.72
2017-01-18T04:27:46.853Z,920.71
2017-01-18T04:28:15.159Z,920.67
2017-01-18T04:28:43.266Z,920.71
2017-01-18T04:29:11.563Z,920.73
2017-01-18T04:29:39.705Z,920.68
2017-01-18T04:30:50.963Z,920.69
2017-01-18T04:31:19.135Z,920.66
2017-01-18T04:31:47.379Z,920.68
2017-01-18T04:32:15.537Z,920.67
2017-01-18T04:32:43.824Z,920.67
2017-01-18T04:33:12.223Z,920.7
2017-01-18T04:33:40.476Z,920.71
2017-01-18T04:34:08.504Z,920.69
2017-01-18T04:34:36.891Z,920.67
2017-01-18T04:35:05.181Z,920.69
2017-01-18T04:35:33.419Z,920.68
2017-01-18T04:36:44.772Z,920.65
2017-01-18T04:37:12.956Z,920.67
2017-01-18T04:37:41.289Z,920.69
2017-01-18T04:38:09.636Z,920.67
2017-01-18T04:38:38.015Z,920.65
2017-01-18T04:39:06.409Z,920.68
2017-01-18T04:39:34.570Z,920.65
2017-01-18T04:40:02.782Z,920.67
2017-01-18T04:40:31.075Z,920.65
2017-01-18T04:40:59.372Z,920.65
2017-01-18T04:41:27.524Z,920.66
2017-01-18T04:42:38.871Z,920.66
2017-01-18T04:43:07.137Z,920.64
2017-01-18T04:43:35.294Z,920.63
2017-01-18T04:44:03.545Z,920.6
2017-01-18T04:44:31.918Z,920.64
2017-01-18T04:45:00.318Z,920.62
2017-01-18T04:45:28.567Z,920.61
2017-01-18T04:45:56.874Z,920.62
2017-01-18T04:46:24.978Z,920.64
2017-01-18T04:46:53.179Z,920.61
2017-01-18T04:47:21.417Z,920.63
2017-01-18T04:48:32.673Z,920.64
2017-01-18T04:49:00.751Z,920.62
2017-01-18T04:49:29.091Z,920.61
2017-01-18T04:49:57.441Z,920.62
2017-01-18T04:50:25.641Z,920.61
2017-01-18T04:50:54.039Z,920.58
2017-01-18T04:51:23.060Z,920.58
2017-01-18T04:51:51.316Z,920.55
2017-01-18T04:52:19.522Z,920.55
2017-01-18T04:52:47.730Z,920.54
2017-01-18T04:53:15.970Z,920.55
2017-01-18T04:54:27.228Z,920.56
2017-01-18T04:54:55.398Z,920.57
2017-01-18T04:55:23.748Z,920.52
2017-01-18T04:55:52.098Z,920.54
2017-01-18T04:56:20.483Z,920.53
2017-01-18T04:56:48.773Z,920.53
2017-01-18T04:57:17.116Z,920.54
2017-01-18T04:57:45.524Z,920.51
2017-01-18T04:58:13.833Z,920.53
2017-01-18T04:58:42.126Z,920.51
2017-01-18T04:59:10.451Z,920.48
2017-01-18T05:00:21.718Z,920.47
2017-01-18T05:00:50.072Z,920.45
2017-01-18T05:01:18.130Z,920.47
2017-01-18T05:01:46.374Z,920.46
2017-01-18T05:02:14.759Z,920.46
2017-01-18T05:02:43.046Z,920.45
2017-01-18T05:03:11.389Z,920.47
2017-01-18T05:03:39.608Z,920.45
2017-01-18T05:04:07.918Z,920.47
2017-01-18T05:04:36.030Z,920.47
2017-01-18T05:05:04.265Z,920.48
2017-01-18T05:06:15.592Z,920.49
2017-01-18T05:06:43.857Z,920.48
2017-01-18T05:07:12.197Z,920.46
2017-01-18T05:07:40.345Z,920.46
2017-01-18T05:08:08.732Z,920.45
2017-01-18T05:08:37.020Z,920.44
2017-01-18T05:09:05.179Z,920.43
2017-01-18T05:09:33.398Z,920.44
2017-01-18T05:10:01.804Z,920.45
2017-01-18T05:10:30.201Z,920.49
2017-01-18T05:10:58.340Z,920.45
2017-01-18T05:12:09.663Z,920.47
2017-01-18T05:12:37.925Z,920.41
2017-01-18T05:13:06.169Z,920.4
2017-01-18T05:13:34.511Z,920.4
2017-01-18T05:14:02.901Z,920.42
2017-01-18T05:14:31.092Z,920.35
2017-01-18T05:14:59.345Z,920.39
2017-01-18T05:15:27.654Z,920.37
2017-01-18T05:15:55.869Z,920.4
2017-01-18T05:16:24.254Z,920.36
2017-01-18T05:16:52.483Z,920.42
2017-01-18T05:18:03.899Z,920.41
2017-01-18T05:18:32.070Z,920.31
2017-01-18T05:19:00.408Z,920.37
2017-01-18T05:19:28.555Z,920.36
2017-01-18T05:19:56.940Z,920.36
2017-01-18T05:20:25.237Z,920.33
2017-01-18T05:20:53.585Z,920.37
2017-01-18T05:21:21.806Z,920.35
2017-01-18T05:21:50.115Z,920.33
2017-01-18T05:22:18.512Z,920.32
2017-01-18T05:22:46.838Z,920.35
2017-01-18T05:23:58.068Z,920.37
2017-01-18T05:24:26.424Z,920.39
2017-01-18T05:24:54.582Z,920.35
2017-01-18T05:25:22.729Z,920.36
2017-01-18T05:25:50.923Z,920.34
2017-01-18T05:26:19.121Z,920.37
2017-01-18T05:26:47.377Z,920.4
2017-01-18T05:27:15.785Z,920.4
2017-01-18T05:27:44.091Z,920.37
2017-01-18T05:28:12.395Z,920.36
2017-01-18T05:28:40.719Z,920.39
2017-01-18T05:29:52.140Z,920.39
2017-01-18T05:30:20.497Z,920.33
2017-01-18T05:30:48.747Z,920.35
2017-01-18T05:31:16.990Z,920.3
2017-01-18T05:31:45.186Z,920.33
2017-01-18T05:32:13.482Z,920.34
2017-01-18T05:32:41.829Z,920.3
2017-01-18T05:33:10.046Z,920.33
2017-01-18T05:33:38.355Z,920.33
2017-01-18T05:34:06.750Z,920.33
2017-01-18T05:34:34.986Z,920.32
2017-01-18T05:35:46.401Z,920.3
2017-01-18T05:36:14.760Z,920.33
2017-01-18T05:36:43.104Z,920.34
2017-01-18T05:37:11.255Z,920.32
2017-01-18T05:37:39.456Z,920.33
2017-01-18T05:38:07.840Z,920.33
2017-01-18T05:38:36.005Z,920.36
2017-01-18T05:39:04.319Z,920.35
2017-01-18T05:39:32.632Z,920.37
2017-01-18T05:40:00.935Z,920.36
2017-01-18T05:40:29.158Z,920.36
2017-01-18T05:41:40.582Z,920.39
2017-01-18T05:42:08.847Z,920.4
2017-01-18T05:42:37.192Z,920.35
2017-01-18T05:43:05.342Z,920.36
2017-01-18T05:43:33.608Z,920.35
2017-01-18T05:44:01.897Z,920.36
2017-01-18T05:44:30.242Z,920.4
2017-01-18T05:44:58.371Z,920.36
2017-01-18T05:45:26.768Z,920.38
2017-01-18T05:45:54.976Z,920.36
2017-01-18T05:46:23.303Z,920.39
2017-01-18T05:47:34.723Z,920.39
2017-01-18T05:48:02.987Z,920.38
2017-01-18T05:48:31.333Z,920.39
2017-01-18T05:48:59.574Z,920.4
2017-01-18T05:49:27.961Z,920.37
2017-01-18T05:49:56.346Z,920.4
2017-01-18T05:50:24.691Z,920.4
2017-01-18T05:50:52.997Z,920.41
2017-01-18T05:51:21.224Z,920.39
2017-01-18T05:51:49.616Z,920.37
2017-01-18T05:52:17.946Z,920.39
2017-01-18T05:53:29.269Z,920.41
2017-01-18T05:53:57.631Z,920.39
2017-01-18T05:54:25.971Z,920.37
2017-01-18T05:54:54.306Z,920.41
2017-01-18T05:55:22.681Z,920.39
2017-01-18T05:55:50.875Z,920.39
2017-01-18T05:56:19.223Z,920.41
2017-01-18T05:56:47.539Z,920.37
2017-01-18T05:57:15.844Z,920.4
2017-01-18T05:57:44.233Z,920.38
2017-01-18T05:58:12.557Z,920.36
2017-01-18T05:59:23.885Z,920.38
2017-01-18T05:59:52.150Z,920.33
2017-01-18T06:00:20.206Z,920.34
2017-01-18T06:00:48.357Z,920.31
2017-01-18T06:01:16.737Z,920.29
2017-01-18T06:01:45.086Z,920.35
2017-01-18T06:02:13.288Z,920.32
2017-01-18T06:02:41.594Z,920.3
2017-01-18T06:03:09.904Z,920.31
2017-01-18T06:03:38.293Z,920.31
2017-01-18T06:04:06.621Z,920.26
2017-01-18T06:05:17.948Z,920.27
2017-01-18T06:05:46.208Z,920.27
2017-01-18T06:06:14.361Z,920.26
2017-01-18T06:06:42.696Z,920.28
2017-01-18T06:07:10.977Z,920.26
2017-01-18T06:07:39.265Z,920.28
2017-01-18T06:08:07.608Z,920.23
2017-01-18T06:08:35.829Z,920.28
2017-01-18T06:09:03.974Z,920.28
2017-01-18T06:09:32.272Z,920.28
2017-01-18T06:10:00.597Z,920.24
2017-01-18T06:11:12.021Z,920.26
2017-01-18T06:11:40.378Z,920.25
2017-01-18T06:12:08.634Z,920.27
2017-01-18T06:12:36.783Z,920.23
2017-01-18T06:13:05.161Z,920.19
2017-01-18T06:13:33.545Z,920.22
2017-01-18T06:14:01.888Z,920.2
2017-01-18T06:14:30.109Z,920.21
2017-01-18T06:14:58.415Z,920.23
2017-01-18T06:15:26.804Z,920.19
2017-01-18T06:15:55.035Z,920.19
2017-01-18T06:17:06.364Z,920.19
2017-01-18T06:17:34.631Z,920.21
2017-01-18T06:18:02.786Z,920.21
2017-01-18T06:18:31.124Z,920.23
2017-01-18T06:18:59.318Z,920.23
2017-01-18T06:19:27.522Z,920.22
2017-01-18T06:19:55.864Z,920.2
2017-01-18T06:20:23.987Z,920.22
2017-01-18T06:20:52.296Z,920.2
2017-01-18T06:21:20.599Z,920.21
2017-01-18T06:21:48.733Z,920.21
2017-01-18T06:23:00.153Z,920.22
2017-01-18T06:23:28.325Z,920.19
2017-01-18T06:23:56.391Z,920.19
2017-01-18T06:24:24.632Z,920.19
2017-01-18T06:24:52.829Z,920.19
2017-01-18T06:25:21.208Z,920.19
2017-01-18T06:25:49.551Z,920.16
2017-01-18T06:26:17.864Z,920.18
2017-01-18T06:26:46.263Z,920.16
2017-01-18T06:27:14.556Z,920.17
2017-01-18T06:27:42.698Z,920.18
2017-01-18T06:28:54.119Z,920.16
2017-01-18T06:29:22.285Z,920.14
2017-01-18T06:29:50.531Z,920.13
2017-01-18T06:30:18.684Z,920.15
2017-01-18T06:30:47.056Z,920.17
2017-01-18T06:31:15.253Z,920.15
2017-01-18T06:31:43.412Z,920.13
2017-01-18T06:32:11.628Z,920.15
2017-01-18T06:32:39.655Z,920.14
2017-01-18T06:33:07.864Z,920.14
2017-01-18T06:33:36.159Z,920.15
2017-01-18T06:34:47.427Z,920.18
2017-01-18T06:35:15.733Z,920.17
2017-01-18T06:35:44.025Z,920.17
2017-01-18T06:36:12.032Z,920.16
2017-01-18T06:36:40.267Z,920.16
2017-01-18T06:37:08.598Z,920.13
2017-01-18T06:37:36.893Z,920.15
2017-01-18T06:38:05.247Z,920.17
2017-01-18T06:38:33.514Z,920.14
2017-01-18T06:39:01.860Z,920.18
2017-01-18T06:39:30.042Z,920.15
2017-01-18T06:40:41.405Z,920.13
2017-01-18T06:41:09.617Z,920.17
2017-01-18T06:41:37.810Z,920.13
2017-01-18T06:42:06.006Z,920.15
2017-01-18T06:42:34.335Z,920.14
2017-01-18T06:43:02.573Z,920.14